Time;durP1;ratioP1;P1;durP2;ratioP2;P2;SDS_P1;SDS_P2;PMS_P1;PMS_P2;Temp;Humidity;BMP_temperature;BMP_pressure;BME280_temperature;BME280_humidity;BME280_pressure;Samples;Min_cycle;Max_cycle;Signal;HPM_P1;HPM_P2
2021/04/09 00:01:53;;;;;;;24.85;11.40;;;2.80;99.90;;;;;;5022608;28;20097;-52
2021/04/09 00:04:18;;;;;;;15.98;10.52;;;2.80;99.90;;;;;;5017364;28;20081;-54
2021/04/09 00:06:44;;;;;;;18.58;10.93;;;2.80;99.90;;;;;;5018216;28;20026;-54
2021/04/09 00:09:11;;;;;;;27.55;11.60;;;2.90;99.90;;;;;;5021270;28;20025;-52
2021/04/09 00:11:38;;;;;;;18.80;10.98;;;2.90;99.90;;;;;;5016593;28;20029;-54
2021/04/09 00:14:08;;;;;;;22.00;11.18;;;2.90;99.90;;;;;;5025335;28;20115;-54
2021/04/09 00:16:34;;;;;;;30.67;11.13;;;2.90;99.90;;;;;;5016519;28;20029;-57
2021/04/09 00:19:00;;;;;;;19.42;10.55;;;2.80;99.90;;;;;;5018508;28;20105;-56
2021/04/09 00:21:26;;;;;;;20.25;10.05;;;2.90;99.90;;;;;;5018914;28;20167;-52
2021/04/09 00:23:52;;;;;;;21.63;10.23;;;2.90;99.90;;;;;;5018869;28;20026;-56
2021/04/09 00:26:18;;;;;;;23.02;10.07;;;2.80;99.90;;;;;;5016082;28;20095;-52
2021/04/09 00:28:44;;;;;;;17.77;9.95;;;2.80;99.90;;;;;;5016634;28;20116;-54
2021/04/09 00:31:10;;;;;;;23.77;10.70;;;2.80;99.90;;;;;;5016571;28;20037;-55
2021/04/09 00:33:35;;;;;;;24.10;10.27;;;2.80;99.90;;;;;;5019246;28;20029;-53
2021/04/09 00:36:01;;;;;;;20.10;9.98;;;2.70;99.90;;;;;;5020367;28;20361;-52
2021/04/09 00:38:26;;;;;;;22.63;9.85;;;2.70;99.90;;;;;;5015783;28;20026;-55
2021/04/09 00:40:52;;;;;;;21.98;10.70;;;2.60;99.90;;;;;;5017243;28;20030;-52
2021/04/09 00:43:18;;;;;;;20.52;11.70;;;2.60;99.90;;;;;;5029038;28;20493;-52
2021/04/09 00:45:43;;;;;;;21.38;10.13;;;2.50;99.90;;;;;;5016346;28;20030;-53
2021/04/09 00:48:09;;;;;;;19.67;9.13;;;2.50;99.90;;;;;;5020694;28;20036;-54
2021/04/09 00:50:37;;;;;;;17.75;9.25;;;2.50;99.90;;;;;;5014880;28;20034;-54
2021/04/09 00:53:06;;;;;;;19.98;9.27;;;2.60;99.90;;;;;;5012478;28;20049;-52
2021/04/09 00:55:32;;;;;;;17.90;9.23;;;2.60;99.90;;;;;;5012561;28;20542;-53
2021/04/09 00:57:59;;;;;;;19.20;8.88;;;2.60;99.90;;;;;;5013731;28;20044;-52
2021/04/09 01:00:26;;;;;;;15.85;8.48;;;2.60;99.90;;;;;;5006402;28;20429;-52
2021/04/09 01:02:53;;;;;;;17.90;9.35;;;2.60;99.90;;;;;;5013820;28;20068;-52
2021/04/09 01:05:19;;;;;;;14.57;8.63;;;2.60;99.90;;;;;;5013330;28;20117;-52
2021/04/09 01:07:45;;;;;;;21.08;10.13;;;2.60;99.90;;;;;;5012501;28;20033;-54
2021/04/09 01:10:13;;;;;;;17.95;9.13;;;2.60;99.90;;;;;;5011922;28;20159;-53
2021/04/09 01:12:38;;;;;;;21.83;8.60;;;2.60;99.90;;;;;;5012038;28;20076;-55
2021/04/09 01:15:06;;;;;;;21.48;9.25;;;2.50;99.90;;;;;;5010524;28;20025;-53
2021/04/09 01:17:53;;;;;;;26.48;9.85;;;2.60;99.90;;;;;;5020782;28;20014;-57
2021/04/09 01:20:19;;;;;;;19.25;8.85;;;2.60;99.90;;;;;;5012220;28;20022;-53
2021/04/09 01:23:00;;;;;;;17.77;8.90;;;2.60;99.90;;;;;;5012674;28;20026;-54
2021/04/09 01:26:08;;;;;;;17.52;8.30;;;2.60;99.90;;;;;;5014876;28;20104;-56
2021/04/09 01:28:45;;;;;;;18.95;8.20;;;2.60;99.90;;;;;;5011144;28;20037;-58
2021/04/09 01:31:34;;;;;;;21.20;7.93;;;2.50;99.90;;;;;;5013310;28;20025;-54
2021/04/09 01:34:01;;;;;;;17.88;9.52;;;2.60;99.90;;;;;;5011510;28;20411;-54
2021/04/09 01:36:36;;;;;;;19.42;8.95;;;2.60;99.90;;;;;;5012439;28;20079;-54
2021/04/09 01:39:11;;;;;;;19.92;9.50;;;2.60;99.90;;;;;;5011614;28;20030;-56
2021/04/09 01:41:38;;;;;;;21.63;8.45;;;2.60;99.90;;;;;;4996464;28;20026;-53
2021/04/09 01:44:06;;;;;;;17.80;8.77;;;2.70;99.90;;;;;;5018873;28;20092;-53
2021/04/09 01:46:36;;;;;;;17.52;7.82;;;2.70;99.90;;;;;;5012233;28;20595;-55
2021/04/09 01:49:02;;;;;;;13.15;8.10;;;2.70;99.90;;;;;;5010470;28;20025;-52
2021/04/09 01:51:28;;;;;;;16.77;7.75;;;2.70;99.90;;;;;;5016232;28;20436;-52
2021/04/09 01:53:55;;;;;;;18.08;9.35;;;2.70;99.90;;;;;;5011329;28;20040;-54
2021/04/09 01:56:22;;;;;;;16.55;8.07;;;2.70;99.90;;;;;;5010990;28;20024;-52
2021/04/09 01:58:49;;;;;;;25.75;7.90;;;2.80;99.90;;;;;;5017175;28;20344;-51
2021/04/09 02:01:15;;;;;;;21.70;7.78;;;2.80;99.90;;;;;;5011829;28;20105;-52
2021/04/09 02:03:44;;;;;;;16.42;7.40;;;2.80;99.90;;;;;;5011197;28;20403;-53
2021/04/09 02:06:12;;;;;;;23.63;8.98;;;2.90;99.90;;;;;;5011736;28;20032;-52
2021/04/09 02:08:38;;;;;;;15.07;8.50;;;2.80;99.90;;;;;;5007791;28;20026;-53
2021/04/09 02:11:04;;;;;;;14.40;8.40;;;2.80;99.90;;;;;;5015559;28;20562;-52
2021/04/09 02:13:32;;;;;;;18.60;8.63;;;2.90;99.90;;;;;;5011129;28;20029;-53
2021/04/09 02:15:59;;;;;;;23.83;8.32;;;2.90;99.90;;;;;;5011632;28;20029;-53
2021/04/09 02:18:25;;;;;;;21.42;8.73;;;2.90;99.90;;;;;;5010859;28;20050;-55
2021/04/09 02:20:51;;;;;;;22.73;9.23;;;2.90;99.90;;;;;;5011542;28;20041;-53
2021/04/09 02:23:18;;;;;;;24.17;9.35;;;2.90;99.90;;;;;;5013775;28;20035;-52
2021/04/09 02:25:44;;;;;;;16.98;8.10;;;3.00;99.90;;;;;;5011465;28;20029;-57
2021/04/09 02:28:10;;;;;;;14.52;8.25;;;3.00;99.90;;;;;;5014787;28;20089;-53
2021/04/09 02:30:35;;;;;;;13.55;8.45;;;3.00;99.90;;;;;;5011039;28;20026;-54
2021/04/09 02:33:01;;;;;;;15.77;8.35;;;3.10;99.90;;;;;;5010564;28;20048;-56
2021/04/09 02:35:26;;;;;;;16.88;8.98;;;3.00;99.90;;;;;;5011277;28;20026;-53
2021/04/09 02:37:53;;;;;;;18.00;8.77;;;3.00;99.90;;;;;;5013277;28;20034;-54
2021/04/09 02:40:27;;;;;;;14.43;8.63;;;2.90;99.90;;;;;;5010826;28;20030;-57
2021/04/09 02:42:53;;;;;;;14.07;8.32;;;2.90;99.90;;;;;;5012021;28;20488;-53
2021/04/09 02:45:21;;;;;;;22.63;8.73;;;2.80;99.90;;;;;;5016705;28;20030;-55
2021/04/09 02:47:48;;;;;;;17.55;8.18;;;2.70;99.90;;;;;;5011158;28;20407;-53
2021/04/09 02:50:24;;;;;;;18.40;9.18;;;2.80;99.90;;;;;;5014751;28;20037;-53
2021/04/09 02:52:53;;;;;;;15.13;9.48;;;2.70;99.90;;;;;;5014400;28;20109;-54
2021/04/09 02:55:22;;;;;;;19.30;8.95;;;2.60;99.90;;;;;;5014817;28;20029;-53
2021/04/09 02:57:49;;;;;;;17.58;8.85;;;2.60;99.90;;;;;;5016715;28;20053;-53
2021/04/09 03:00:16;;;;;;;22.33;8.95;;;2.50;99.90;;;;;;5011136;28;20022;-53
2021/04/09 03:02:44;;;;;;;19.23;8.88;;;2.50;99.90;;;;;;5009600;28;20037;-55
2021/04/09 03:05:11;;;;;;;23.92;9.27;;;2.50;99.90;;;;;;5020594;28;20021;-54
2021/04/09 03:07:39;;;;;;;24.10;8.50;;;2.50;99.90;;;;;;5010071;28;20066;-54
2021/04/09 03:10:10;;;;;;;21.77;9.10;;;2.40;99.90;;;;;;5010124;28;20030;-55
2021/04/09 03:12:35;;;;;;;24.35;9.10;;;2.50;99.90;;;;;;5013641;28;20056;-52
2021/04/09 03:15:04;;;;;;;17.05;8.70;;;2.50;99.90;;;;;;5010634;28;20391;-54
2021/04/09 03:17:33;;;;;;;18.13;8.98;;;2.50;99.90;;;;;;5010169;28;20026;-53
2021/04/09 03:19:59;;;;;;;18.30;8.45;;;2.50;99.90;;;;;;5010455;28;20022;-53
2021/04/09 03:22:24;;;;;;;22.30;8.57;;;2.50;99.90;;;;;;5010187;28;20089;-53
2021/04/09 03:24:50;;;;;;;20.83;9.10;;;2.50;99.90;;;;;;5009771;28;20029;-55
2021/04/09 03:27:16;;;;;;;21.95;9.60;;;2.50;99.90;;;;;;5011740;28;20434;-52
2021/04/09 03:29:42;;;;;;;19.23;8.80;;;2.60;99.90;;;;;;5012118;28;20446;-52
2021/04/09 03:32:08;;;;;;;17.83;9.90;;;2.60;99.90;;;;;;5011612;28;20062;-53
2021/04/09 03:34:33;;;;;;;15.70;8.27;;;2.60;99.90;;;;;;5047545;22;20065;-55
2021/04/09 03:36:59;;;;;;;18.23;8.73;;;2.60;99.90;;;;;;5037034;28;20091;-54
2021/04/09 03:39:25;;;;;;;16.33;8.18;;;2.70;99.90;;;;;;5037760;28;20033;-56
2021/04/09 03:41:50;;;;;;;31.40;10.20;;;2.70;99.90;;;;;;5029927;28;20129;-57
2021/04/09 03:44:16;;;;;;;19.58;8.40;;;2.70;99.90;;;;;;5029788;28;20021;-56
2021/04/09 03:46:41;;;;;;;18.13;8.65;;;2.70;99.90;;;;;;5029827;28;20025;-54
2021/04/09 03:49:07;;;;;;;19.55;9.23;;;2.80;99.90;;;;;;5030308;28;20436;-58
2021/04/09 03:51:34;;;;;;;23.15;9.15;;;2.70;99.90;;;;;;5029526;28;20542;-57
2021/04/09 03:54:00;;;;;;;20.30;9.05;;;2.70;99.90;;;;;;5029305;28;20057;-57
2021/04/09 03:56:25;;;;;;;15.95;8.75;;;2.80;99.90;;;;;;5020338;28;20104;-54
2021/04/09 03:58:51;;;;;;;17.63;8.63;;;2.80;99.90;;;;;;5013115;28;20024;-56
2021/04/09 04:01:17;;;;;;;18.90;9.18;;;2.80;99.90;;;;;;5029800;28;20048;-58
2021/04/09 04:03:47;;;;;;;17.73;10.23;;;2.80;99.90;;;;;;5026889;28;20476;-57
2021/04/09 04:06:12;;;;;;;24.85;9.85;;;2.80;99.90;;;;;;5028597;28;20405;-62
2021/04/09 04:08:38;;;;;;;19.42;9.30;;;2.80;99.90;;;;;;5033667;28;20026;-55
2021/04/09 04:11:03;;;;;;;17.98;9.88;;;2.80;99.90;;;;;;5032580;28;20029;-54
2021/04/09 04:13:29;;;;;;;21.58;9.95;;;2.90;99.90;;;;;;5031369;28;20059;-57
2021/04/09 04:15:54;;;;;;;18.00;9.20;;;2.90;99.90;;;;;;5028393;28;21036;-54
2021/04/09 04:18:20;;;;;;;20.20;9.57;;;2.90;99.90;;;;;;5029709;28;20084;-56
2021/04/09 04:20:45;;;;;;;20.88;9.02;;;2.80;99.90;;;;;;5029989;28;20025;-57
2021/04/09 04:23:11;;;;;;;19.67;9.68;;;2.60;99.90;;;;;;5030061;28;20515;-55
2021/04/09 04:25:36;;;;;;;19.50;10.30;;;2.50;99.90;;;;;;5032768;28;20079;-57
2021/04/09 04:28:02;;;;;;;21.15;9.95;;;2.40;99.90;;;;;;5032375;28;20032;-57
2021/04/09 04:30:28;;;;;;;18.80;9.25;;;2.30;99.90;;;;;;5035119;28;20035;-57
2021/04/09 04:32:53;;;;;;;20.63;10.30;;;2.30;99.90;;;;;;5038191;28;20495;-55
2021/04/09 04:35:19;;;;;;;22.05;10.15;;;2.20;99.90;;;;;;5034579;28;20037;-58
2021/04/09 04:37:45;;;;;;;20.60;9.65;;;2.10;99.90;;;;;;5041526;28;20106;-58
2021/04/09 04:40:11;;;;;;;21.98;10.30;;;2.10;99.90;;;;;;5034015;28;20021;-57
2021/04/09 04:42:36;;;;;;;22.58;10.48;;;2.10;99.90;;;;;;5035471;28;20057;-57
2021/04/09 04:45:02;;;;;;;22.67;10.32;;;2.00;99.90;;;;;;5033347;28;20040;-56
2021/04/09 04:47:28;;;;;;;20.10;9.95;;;2.00;99.90;;;;;;5042085;28;20472;-57
2021/04/09 04:49:53;;;;;;;20.48;10.85;;;1.90;99.90;;;;;;5034255;28;20037;-57
2021/04/09 04:52:19;;;;;;;27.75;11.38;;;2.00;99.90;;;;;;5032756;28;20079;-56
2021/04/09 04:54:44;;;;;;;16.85;10.23;;;1.90;99.90;;;;;;5032458;28;20079;-54
2021/04/09 04:57:10;;;;;;;25.50;10.98;;;2.00;99.90;;;;;;5035506;28;20053;-57
2021/04/09 04:59:36;;;;;;;24.88;11.05;;;2.00;99.90;;;;;;5032758;28;20034;-57
2021/04/09 05:02:01;;;;;;;21.88;10.85;;;2.00;99.90;;;;;;5038028;28;20053;-56
2021/04/09 05:04:28;;;;;;;32.22;10.48;;;2.00;99.90;;;;;;5033101;28;20036;-58
2021/04/09 05:06:53;;;;;;;26.90;11.25;;;2.00;99.90;;;;;;5013553;28;20147;-57
2021/04/09 05:09:19;;;;;;;29.17;11.48;;;2.00;99.90;;;;;;5033993;28;20029;-55
2021/04/09 05:11:45;;;;;;;24.75;11.30;;;2.00;99.90;;;;;;5039602;28;20060;-53
2021/04/09 05:14:10;;;;;;;22.65;10.70;;;2.10;99.90;;;;;;5034867;28;20131;-55
2021/04/09 05:16:36;;;;;;;23.10;10.57;;;2.10;99.90;;;;;;5038862;28;20048;-56
2021/04/09 05:19:01;;;;;;;24.00;11.48;;;2.10;99.90;;;;;;5032394;28;20455;-57
2021/04/09 05:21:27;;;;;;;28.88;11.43;;;2.20;99.90;;;;;;5032012;28;20041;-56
2021/04/09 05:23:53;;;;;;;26.45;11.18;;;2.20;99.90;;;;;;5039429;28;20055;-56
2021/04/09 05:26:18;;;;;;;29.73;11.55;;;2.10;99.90;;;;;;5035023;28;20557;-57
2021/04/09 05:28:44;;;;;;;22.52;11.00;;;2.20;99.90;;;;;;5032720;28;20029;-57
2021/04/09 05:31:10;;;;;;;25.17;11.40;;;2.20;99.90;;;;;;5032578;28;20040;-57
2021/04/09 05:33:35;;;;;;;26.10;10.88;;;2.20;99.90;;;;;;5031450;28;20048;-55
2021/04/09 05:36:01;;;;;;;22.15;11.07;;;2.30;99.90;;;;;;5030600;28;20044;-56
2021/04/09 05:38:27;;;;;;;20.40;11.13;;;2.30;99.90;;;;;;5042020;28;20105;-56
2021/04/09 05:40:52;;;;;;;23.60;11.07;;;2.40;99.90;;;;;;5035222;28;20108;-57
2021/04/09 05:43:18;;;;;;;23.67;11.15;;;2.50;99.90;;;;;;5031588;28;20112;-57
2021/04/09 05:45:44;;;;;;;24.42;11.95;;;2.60;99.90;;;;;;5030884;28;20038;-56
2021/04/09 05:48:10;;;;;;;23.98;10.95;;;2.70;99.90;;;;;;5031638;28;20037;-57
2021/04/09 05:50:36;;;;;;;24.60;10.75;;;2.80;99.90;;;;;;5031758;28;20075;-55
2021/04/09 05:53:02;;;;;;;25.23;10.70;;;2.90;99.90;;;;;;5034957;28;20025;-56
2021/04/09 05:55:28;;;;;;;23.83;10.80;;;2.90;99.90;;;;;;5033606;28;20079;-56
2021/04/09 05:57:53;;;;;;;23.13;11.48;;;3.10;99.90;;;;;;5036951;28;20025;-56
2021/04/09 06:00:19;;;;;;;23.77;11.35;;;3.20;99.90;;;;;;5035438;28;20419;-56
2021/04/09 06:02:45;;;;;;;19.45;10.80;;;3.30;99.90;;;;;;5031308;28;20033;-56
2021/04/09 06:05:11;;;;;;;29.33;12.63;;;3.40;99.90;;;;;;5030744;28;20442;-57
2021/04/09 06:07:37;;;;;;;19.48;11.05;;;3.50;99.90;;;;;;5029922;28;20034;-57
2021/04/09 06:10:04;;;;;;;25.60;10.45;;;3.70;99.90;;;;;;5030989;28;20037;-57
2021/04/09 06:12:30;;;;;;;24.25;11.75;;;3.90;99.90;;;;;;5035473;28;20037;-56
2021/04/09 06:14:55;;;;;;;27.08;11.50;;;4.00;99.90;;;;;;5036986;28;20128;-57
2021/04/09 06:17:21;;;;;;;24.50;10.93;;;4.10;99.90;;;;;;5034033;28;20022;-56
2021/04/09 06:19:49;;;;;;;22.40;11.52;;;4.30;99.90;;;;;;5034576;28;20392;-55
2021/04/09 06:22:16;;;;;;;20.38;10.75;;;4.40;99.90;;;;;;5031072;28;20064;-56
2021/04/09 06:24:42;;;;;;;21.88;10.15;;;4.50;99.90;;;;;;5030768;28;20030;-56
2021/04/09 06:27:09;;;;;;;20.40;10.77;;;4.70;99.90;;;;;;5030357;28;20032;-55
2021/04/09 06:29:36;;;;;;;23.35;10.65;;;4.80;99.90;;;;;;5031392;28;20025;-53
2021/04/09 06:32:01;;;;;;;26.75;11.40;;;4.90;99.90;;;;;;5035138;28;20042;-56
2021/04/09 06:34:27;;;;;;;22.92;10.65;;;5.00;99.90;;;;;;5030270;28;20081;-56
2021/04/09 06:36:53;;;;;;;20.40;10.60;;;5.10;99.90;;;;;;5029831;28;20033;-56
2021/04/09 06:39:18;;;;;;;26.33;11.20;;;5.20;99.90;;;;;;5030294;28;20021;-57
2021/04/09 06:41:44;;;;;;;22.15;11.18;;;5.30;99.90;;;;;;5031186;28;20026;-55
2021/04/09 06:44:10;;;;;;;26.50;12.52;;;5.40;99.90;;;;;;5030526;28;20034;-54
2021/04/09 06:46:36;;;;;;;24.63;11.48;;;5.50;99.90;;;;;;5036419;28;20422;-54
2021/04/09 06:49:02;;;;;;;23.33;10.23;;;5.60;99.90;;;;;;5028543;28;20033;-57
2021/04/09 06:51:28;;;;;;;23.85;10.77;;;5.70;99.90;;;;;;5017999;28;20116;-56
2021/04/09 06:53:54;;;;;;;20.98;9.80;;;5.80;99.90;;;;;;5031490;28;20494;-56
2021/04/09 06:56:23;;;;;;;22.15;10.88;;;5.90;99.90;;;;;;5029342;28;20037;-57
2021/04/09 06:58:49;;;;;;;22.58;10.75;;;6.00;99.90;;;;;;5038308;28;20036;-56
2021/04/09 07:01:23;;;;;;;24.27;10.43;;;6.10;99.90;;;;;;5033784;28;20116;-56
2021/04/09 07:03:48;;;;;;;17.77;10.02;;;6.10;99.90;;;;;;5037305;28;20029;-57
2021/04/09 07:06:14;;;;;;;26.00;10.65;;;6.20;99.90;;;;;;5030784;28;20525;-56
2021/04/09 07:08:40;;;;;;;21.88;10.60;;;6.40;99.90;;;;;;5030336;28;20036;-57
2021/04/09 07:11:07;;;;;;;22.83;11.02;;;6.50;99.90;;;;;;5029691;28;20036;-56
2021/04/09 07:13:33;;;;;;;22.52;10.40;;;6.60;99.90;;;;;;5034313;28;20105;-57
2021/04/09 07:16:08;;;;;;;23.02;9.80;;;6.80;99.90;;;;;;5030748;28;20028;-55
2021/04/09 07:18:55;;;;;;;27.15;10.57;;;6.90;99.90;;;;;;5034396;28;20032;-56
2021/04/09 07:21:28;;;;;;;17.65;9.90;;;7.00;99.90;;;;;;5030048;28;20029;-56
2021/04/09 07:24:23;;;;;;;21.73;9.20;;;7.20;99.90;;;;;;5039117;28;20112;-54
2021/04/09 07:26:50;;;;;;;;;;;7.30;99.90;;;;;;5020961;28;20383;-53
2021/04/09 07:29:30;;;;;;;19.40;7.32;;;7.40;99.90;;;;;;5030225;28;19928;-57
2021/04/09 07:32:19;;;;;;;17.08;7.70;;;7.90;99.90;;;;;;5029198;28;20031;-55
2021/04/09 07:35:15;;;;;;;17.83;6.43;;;8.10;99.90;;;;;;5034144;28;20116;-55
2021/04/09 07:37:52;;;;;;;14.50;7.00;;;8.30;99.90;;;;;;5026261;28;20071;-54
2021/04/09 07:40:32;;;;;;;19.88;7.65;;;8.50;99.90;;;;;;5031366;28;20025;-56
2021/04/09 07:42:59;;;;;;;16.55;6.20;;;8.70;99.90;;;;;;5037648;28;20033;-56
2021/04/09 07:45:27;;;;;;;13.73;6.75;;;8.80;99.90;;;;;;5030853;28;20021;-56
2021/04/09 07:48:04;;;;;;;13.32;6.80;;;8.90;99.90;;;;;;5033719;28;20033;-55
2021/04/09 07:50:50;;;;;;;15.13;7.43;;;8.90;99.90;;;;;;5033573;28;20491;-55
2021/04/09 07:53:30;;;;;;;14.82;6.28;;;9.00;99.90;;;;;;5033824;28;20040;-54
2021/04/09 07:56:07;;;;;;;15.07;7.72;;;9.10;99.90;;;;;;5037004;28;20030;-57
2021/04/09 07:58:34;;;;;;;17.55;7.53;;;9.10;99.90;;;;;;5033636;28;20079;-57
2021/04/09 08:01:00;;;;;;;20.48;8.98;;;9.10;99.90;;;;;;5034026;28;20103;-54
2021/04/09 08:03:39;;;;;;;17.45;7.65;;;9.10;99.90;;;;;;5036567;28;20053;-54
2021/04/09 08:06:05;;;;;;;15.77;6.82;;;9.20;99.90;;;;;;5032013;28;20407;-54
2021/04/09 08:08:30;;;;;;;22.10;7.32;;;9.20;99.90;;;;;;5037126;28;20033;-57
2021/04/09 08:11:27;;;;;;;17.15;6.70;;;9.30;99.90;;;;;;5040100;28;20395;-55
2021/04/09 08:14:09;;;;;;;16.80;7.47;;;9.40;99.90;;;;;;5034888;28;20573;-55
2021/04/09 08:16:38;;;;;;;16.88;6.78;;;9.40;99.90;;;;;;5039916;28;20566;-56
2021/04/09 08:19:15;;;;;;;14.65;7.40;;;9.50;99.90;;;;;;5039366;28;20017;-57
2021/04/09 08:21:52;;;;;;;14.80;7.55;;;9.60;99.90;;;;;;5034019;28;20124;-57
2021/04/09 08:24:23;;;;;;;16.27;7.13;;;9.70;99.90;;;;;;5038452;28;20068;-55
2021/04/09 08:26:50;;;;;;;14.27;6.18;;;9.80;99.90;;;;;;5026668;28;20132;-55
2021/04/09 08:29:17;;;;;;;19.52;7.45;;;9.90;99.90;;;;;;5033497;28;20031;-56
2021/04/09 08:31:42;;;;;;;23.33;7.07;;;10.00;99.90;;;;;;5036878;28;20456;-55
2021/04/09 08:34:10;;;;;;;17.27;7.75;;;10.10;99.90;;;;;;5043052;28;20059;-57
2021/04/09 08:36:42;;;;;;;18.98;7.25;;;10.20;99.90;;;;;;5031718;28;20041;-56
2021/04/09 08:39:11;;;;;;;16.15;7.03;;;10.40;99.90;;;;;;5035449;28;20122;-54
2021/04/09 08:41:37;;;;;;;16.02;7.82;;;10.40;99.90;;;;;;5026735;28;20025;-55
2021/04/09 08:44:06;;;;;;;15.82;7.82;;;10.50;99.90;;;;;;5032176;28;20531;-57
2021/04/09 08:46:31;;;;;;;16.00;7.70;;;10.50;99.90;;;;;;5038959;28;20025;-55
2021/04/09 08:48:58;;;;;;;16.52;7.53;;;10.50;99.90;;;;;;5041443;28;20037;-54
2021/04/09 08:51:24;;;;;;;20.00;7.03;;;10.50;99.90;;;;;;5033636;28;20026;-55
2021/04/09 08:53:50;;;;;;;18.63;7.47;;;10.60;99.90;;;;;;5043271;28;20041;-53
2021/04/09 08:56:36;;;;;;;17.92;8.05;;;10.70;99.90;;;;;;5034776;28;20025;-55
2021/04/09 08:59:02;;;;;;;17.60;6.97;;;10.70;99.90;;;;;;5042594;28;20033;-54
2021/04/09 09:01:28;;;;;;;16.83;7.28;;;10.80;99.90;;;;;;5034082;28;20026;-56
2021/04/09 09:03:53;;;;;;;19.83;7.53;;;10.90;99.90;;;;;;5039785;28;20082;-57
2021/04/09 09:06:42;;;;;;;13.98;7.80;;;11.00;99.90;;;;;;5030827;28;20107;-52
2021/04/09 09:09:08;;;;;;;36.63;16.85;;;11.00;99.90;;;;;;5031720;28;20025;-54
2021/04/09 09:11:56;;;;;;;23.38;11.32;;;11.10;99.90;;;;;;5037738;28;20021;-53
2021/04/09 09:14:33;;;;;;;24.95;8.88;;;11.30;99.90;;;;;;5037340;28;20117;-56
2021/04/09 09:17:20;;;;;;;14.02;6.93;;;11.40;99.90;;;;;;5039345;28;20032;-55
2021/04/09 09:20:03;;;;;;;19.02;7.22;;;11.40;99.90;;;;;;5029645;28;20087;-56
2021/04/09 09:22:50;;;;;;;14.15;7.38;;;11.40;99.90;;;;;;5035528;28;20025;-55
2021/04/09 09:25:37;;;;;;;15.38;6.43;;;11.40;99.90;;;;;;5028574;28;20061;-55
2021/04/09 09:28:03;;;;;;;16.48;6.57;;;11.40;99.90;;;;;;5032575;28;20033;-52
2021/04/09 09:30:40;;;;;;;20.50;6.70;;;11.70;99.90;;;;;;5029912;28;20053;-53
2021/04/09 09:33:25;;;;;;;14.60;6.30;;;11.80;99.90;;;;;;5024527;28;20032;-53
2021/04/09 09:36:09;;;;;;;14.73;5.97;;;12.00;99.90;;;;;;5046654;22;20414;-54
2021/04/09 09:38:55;;;;;;;10.27;6.10;;;12.10;99.90;;;;;;5040894;28;20065;-55
2021/04/09 09:41:47;;;;;;;17.40;6.05;;;12.40;99.90;;;;;;5041944;28;20059;-56
2021/04/09 09:44:32;;;;;;;11.35;5.80;;;12.50;99.90;;;;;;5038512;28;20045;-53
2021/04/09 09:47:18;;;;;;;16.77;6.82;;;12.40;99.90;;;;;;5042276;28;20036;-52
2021/04/09 09:50:10;;;;;;;15.52;5.88;;;12.40;99.90;;;;;;5041441;28;20039;-55
2021/04/09 09:52:40;;;;;;;12.60;6.10;;;12.60;99.90;;;;;;5041454;28;20041;-57
2021/04/09 09:55:12;;;;;;;13.20;5.75;;;12.80;99.90;;;;;;5041955;28;20509;-55
2021/04/09 09:57:49;;;;;;;15.13;6.30;;;12.80;99.90;;;;;;5043318;28;20467;-54
2021/04/09 10:00:25;;;;;;;12.55;5.25;;;13.10;99.90;;;;;;5042702;28;20032;-54
2021/04/09 10:02:50;;;;;;;9.32;5.10;;;13.30;99.90;;;;;;5040232;28;20110;-54
2021/04/09 10:05:17;;;;;;;13.27;6.53;;;13.40;99.90;;;;;;5041624;28;20033;-54
2021/04/09 10:07:44;;;;;;;8.77;4.95;;;13.30;99.90;;;;;;5043119;28;20025;-52
2021/04/09 10:10:10;;;;;;;7.72;4.55;;;13.30;99.90;;;;;;5042420;28;20784;-55
2021/04/09 10:12:36;;;;;;;10.68;5.40;;;13.50;99.90;;;;;;5040247;28;20037;-53
2021/04/09 10:15:01;;;;;;;11.68;5.63;;;13.40;99.90;;;;;;5041067;28;20013;-53
2021/04/09 10:17:27;;;;;;;11.48;5.40;;;13.30;99.90;;;;;;5042475;28;20487;-56
2021/04/09 10:20:04;;;;;;;15.00;6.32;;;13.40;99.90;;;;;;5042324;28;20035;-54
2021/04/09 10:22:31;;;;;;;14.93;6.13;;;13.50;99.90;;;;;;5040777;28;20125;-55
2021/04/09 10:24:57;;;;;;;14.40;5.60;;;13.70;99.90;;;;;;5040599;28;20651;-53
2021/04/09 10:27:22;;;;;;;16.75;6.22;;;13.90;99.90;;;;;;5041085;28;20029;-53
2021/04/09 10:29:48;;;;;;;11.55;5.82;;;14.00;99.90;;;;;;5040966;28;20049;-53
2021/04/09 10:32:19;;;;;;;12.40;5.43;;;14.30;99.90;;;;;;5041078;28;20041;-53
2021/04/09 10:34:49;;;;;;;12.77;5.57;;;14.30;99.90;;;;;;5040415;28;20036;-55
2021/04/09 10:37:25;;;;;;;15.68;4.82;;;14.40;99.90;;;;;;5040563;28;20064;-56
2021/04/09 10:39:52;;;;;;;10.63;4.82;;;14.80;99.90;;;;;;5040932;28;20021;-54
2021/04/09 10:42:19;;;;;;;11.40;4.90;;;14.30;99.90;;;;;;5041829;28;20049;-55
2021/04/09 10:44:45;;;;;;;9.15;4.60;;;14.30;99.90;;;;;;5039381;28;20079;-56
2021/04/09 10:47:11;;;;;;;9.57;4.47;;;14.40;99.90;;;;;;5040326;28;20556;-57
2021/04/09 10:49:41;;;;;;;11.05;5.30;;;14.50;99.90;;;;;;5040687;28;20386;-53
2021/04/09 10:52:13;;;;;;;11.98;5.47;;;14.30;99.90;;;;;;5040745;28;20039;-58
2021/04/09 10:54:41;;;;;;;15.38;5.82;;;14.30;99.90;;;;;;5039409;28;20029;-55
2021/04/09 10:57:10;;;;;;;13.45;5.55;;;14.30;99.90;;;;;;5042290;28;20150;-55
2021/04/09 10:59:40;;;;;;;10.50;6.03;;;14.50;99.90;;;;;;5040769;28;20024;-55
2021/04/09 11:02:09;;;;;;;11.82;5.43;;;14.70;99.90;;;;;;5042100;28;20039;-53
2021/04/09 11:04:36;;;;;;;10.85;5.35;;;15.00;99.90;;;;;;5040608;28;20032;-53
2021/04/09 11:07:06;;;;;;;8.93;4.68;;;15.10;99.90;;;;;;5040686;28;20510;-54
2021/04/09 11:09:48;;;;;;;10.90;5.32;;;15.40;99.90;;;;;;5040923;28;20025;-55
2021/04/09 11:12:24;;;;;;;9.93;5.32;;;15.50;99.90;;;;;;5041258;28;20044;-55
2021/04/09 11:15:05;;;;;;;12.55;5.40;;;15.30;99.90;;;;;;5040615;28;20017;-55
2021/04/09 11:17:30;;;;;;;8.35;4.63;;;15.10;99.90;;;;;;5040377;28;20033;-55
2021/04/09 11:19:59;;;;;;;9.98;4.65;;;15.10;99.90;;;;;;5041501;28;20049;-53
2021/04/09 11:22:27;;;;;;;8.40;4.75;;;15.40;99.90;;;;;;5039311;28;20049;-53
2021/04/09 11:25:05;;;;;;;12.63;4.82;;;15.10;99.90;;;;;;5040771;28;20049;-56
2021/04/09 11:27:33;;;;;;;14.73;5.10;;;15.10;99.90;;;;;;5041659;28;20024;-55
2021/04/09 11:30:19;;;;;;;10.73;4.60;;;15.10;99.90;;;;;;5033607;28;20704;-56
2021/04/09 11:32:52;;;;;;;10.98;5.30;;;15.00;99.90;;;;;;5037303;28;20059;-54
2021/04/09 11:35:20;;;;;;;11.68;5.57;;;15.20;99.90;;;;;;5038516;28;20029;-58
2021/04/09 11:37:55;;;;;;;13.63;4.90;;;15.40;99.90;;;;;;5040025;28;20078;-57
2021/04/09 11:40:35;;;;;;;13.85;5.15;;;15.80;99.90;;;;;;5038935;28;20379;-53
2021/04/09 11:43:01;;;;;;;10.85;4.28;;;15.60;99.90;;;;;;5040075;28;20030;-56
2021/04/09 11:45:38;;;;;;;9.00;4.55;;;15.70;99.90;;;;;;5041440;28;20031;-53
2021/04/09 11:48:21;;;;;;;10.50;4.63;;;15.90;99.90;;;;;;5041884;28;20646;-53
2021/04/09 11:50:46;;;;;;;8.52;4.70;;;16.10;99.90;;;;;;5042643;28;20033;-54
2021/04/09 11:53:12;;;;;;;8.68;4.43;;;16.00;99.90;;;;;;5040668;28;20364;-55
2021/04/09 11:55:39;;;;;;;11.07;4.53;;;16.00;99.90;;;;;;5040824;28;20097;-54
2021/04/09 11:58:20;;;;;;;13.18;4.55;;;15.70;99.90;;;;;;5038947;28;20032;-54
2021/04/09 12:01:00;;;;;;;6.95;4.20;;;15.50;99.90;;;;;;5039594;28;20053;-52
2021/04/09 12:03:43;;;;;;;10.23;4.68;;;15.70;99.90;;;;;;5041232;28;20031;-52
2021/04/09 12:06:16;;;;;;;11.45;5.05;;;15.50;99.90;;;;;;5038965;28;20044;-53
2021/04/09 12:08:43;;;;;;;13.37;5.50;;;15.80;99.90;;;;;;5041065;28;20403;-52
2021/04/09 12:11:10;;;;;;;9.70;4.60;;;16.10;99.90;;;;;;5039898;28;20325;-55
2021/04/09 12:13:37;;;;;;;12.40;5.28;;;16.20;99.90;;;;;;5039757;28;20087;-54
2021/04/09 12:16:03;;;;;;;9.60;4.47;;;16.40;99.90;;;;;;5039502;28;20082;-56
2021/04/09 12:18:29;;;;;;;12.20;4.55;;;16.30;99.90;;;;;;5040733;28;20025;-52
2021/04/09 12:20:54;;;;;;;8.45;4.35;;;16.20;99.90;;;;;;5024437;28;20037;-53
2021/04/09 12:23:20;;;;;;;7.72;4.93;;;16.20;99.90;;;;;;5040019;28;20036;-52
2021/04/09 12:25:45;;;;;;;8.88;4.82;;;16.20;99.90;;;;;;5040985;28;20121;-54
2021/04/09 12:28:11;;;;;;;14.40;4.80;;;16.10;99.90;;;;;;5040013;28;20029;-52
2021/04/09 12:30:37;;;;;;;14.77;4.75;;;16.30;99.90;;;;;;5039553;28;20067;-52
2021/04/09 12:33:03;;;;;;;13.45;4.68;;;16.50;99.90;;;;;;5039220;28;20068;-54
2021/04/09 12:35:28;;;;;;;8.95;4.38;;;16.70;99.10;;;;;;5023436;28;20033;-53
2021/04/09 12:37:54;;;;;;;10.38;4.45;;;16.70;98.10;;;;;;5040239;28;20040;-52
2021/04/09 12:40:19;;;;;;;9.35;4.30;;;16.90;97.80;;;;;;5038972;28;20028;-54
2021/04/09 12:42:45;;;;;;;9.80;4.65;;;17.20;97.80;;;;;;5038866;28;20032;-56
2021/04/09 12:45:11;;;;;;;6.97;4.60;;;17.40;97.30;;;;;;5043451;28;20032;-54
2021/04/09 12:47:37;;;;;;;8.00;4.35;;;17.20;96.30;;;;;;5044108;28;20102;-53
2021/04/09 12:50:03;;;;;;;7.60;4.72;;;16.90;97.50;;;;;;5043117;28;20033;-55
2021/04/09 12:52:28;;;;;;;10.32;5.10;;;16.90;97.00;;;;;;5042057;28;20043;-53